createdAt,value
2018-06-12T00:02:06.879Z,68.70
2018-06-12T00:04:38.876Z,69.00
2018-06-12T00:07:10.924Z,69.00
2018-06-12T00:09:42.733Z,69.00
2018-06-12T00:12:14.568Z,68.70
2018-06-12T00:14:46.782Z,68.20
2018-06-12T00:19:49.961Z,68.50
2018-06-12T00:22:22.075Z,68.90
2018-06-12T00:27:25.462Z,69.70
2018-06-12T00:29:57.313Z,69.80
2018-06-12T00:32:29.693Z,70.00
2018-06-12T00:35:02.113Z,69.40
2018-06-12T00:37:34.160Z,68.30
2018-06-12T00:42:37.660Z,68.30
2018-06-12T00:45:09.633Z,68.20
2018-06-12T00:47:41.498Z,68.20
2018-06-12T00:50:13.583Z,68.10
2018-06-12T00:52:48.691Z,68.00
2018-06-12T00:55:22.564Z,68.00
2018-06-12T00:57:54.393Z,68.00
2018-06-12T01:00:26.507Z,67.80
2018-06-12T01:02:58.993Z,67.80
2018-06-12T01:05:30.934Z,67.50
2018-06-12T01:08:03.196Z,67.30
2018-06-12T01:10:35.344Z,67.00
2018-06-12T01:15:40.837Z,67.50
2018-06-12T01:18:12.904Z,68.00
2018-06-12T01:20:44.988Z,67.80
2018-06-12T01:23:16.873Z,67.90
2018-06-12T01:31:03.925Z,69.10
2018-06-12T01:33:36.063Z,68.80
2018-06-12T01:36:08.037Z,68.70
2018-06-12T01:38:40.162Z,68.80
2018-06-12T01:41:12.217Z,69.00
2018-06-12T01:43:44.445Z,69.10
2018-06-12T01:46:16.224Z,69.30
2018-06-12T01:51:19.251Z,70.00
2018-06-12T01:53:52.362Z,70.30
2018-06-12T01:56:32.045Z,70.20
2018-06-12T01:59:04.046Z,69.90
2018-06-12T02:01:36.068Z,69.70
2018-06-12T02:04:08.193Z,69.70
2018-06-12T02:06:40.504Z,69.80
2018-06-12T02:09:12.665Z,70.20
2018-06-12T02:11:45.035Z,70.80
2018-06-12T02:14:17.280Z,71.50
2018-06-12T02:16:50.798Z,72.00
2018-06-12T02:19:23.003Z,72.10
2018-06-12T02:21:55.000Z,72.30
2018-06-12T02:24:27.021Z,72.10
2018-06-12T02:26:59.662Z,71.80
2018-06-12T02:29:31.636Z,71.60
2018-06-12T02:32:04.495Z,71.90
2018-06-12T02:34:36.453Z,72.80
2018-06-12T02:37:08.658Z,71.80
2018-06-12T02:39:40.553Z,71.60
2018-06-12T02:42:12.618Z,71.60
2018-06-12T02:44:44.589Z,71.70
2018-06-12T02:47:16.405Z,71.70
2018-06-12T02:49:48.533Z,71.80
2018-06-12T02:52:47.664Z,71.70
2018-06-12T02:55:21.741Z,71.30
2018-06-12T03:00:37.558Z,71.20
2018-06-12T03:03:09.910Z,73.40
2018-06-12T03:08:13.204Z,74.40
2018-06-12T03:10:45.249Z,71.70
2018-06-12T03:15:48.253Z,71.20
2018-06-12T03:18:20.402Z,72.30
2018-06-12T03:20:52.842Z,72.10
2018-06-12T03:23:24.743Z,71.90
2018-06-12T03:26:01.252Z,72.00
2018-06-12T03:28:33.062Z,72.00
2018-06-12T03:31:04.903Z,72.10
2018-06-12T03:33:36.811Z,72.50
2018-06-12T03:36:08.651Z,72.30
2018-06-12T03:38:40.730Z,71.40
2018-06-12T03:41:12.613Z,70.70
2018-06-12T03:43:44.549Z,72.20
2018-06-12T03:46:16.466Z,72.30
2018-06-12T03:48:48.239Z,72.00
2018-06-12T03:51:20.420Z,71.90
2018-06-12T03:53:52.544Z,71.80
2018-06-12T03:56:24.360Z,71.90
2018-06-12T03:58:56.383Z,71.50
2018-06-12T04:01:28.592Z,71.80
2018-06-12T04:04:01.043Z,71.50
2018-06-12T04:06:37.419Z,71.50
2018-06-12T04:09:11.019Z,69.20
2018-06-12T04:11:42.947Z,70.20
2018-06-12T04:16:45.949Z,73.50
2018-06-12T04:19:19.130Z,73.30
2018-06-12T04:21:51.082Z,73.30
2018-06-12T04:24:22.905Z,74.00
2018-06-12T04:26:54.997Z,74.80
2018-06-12T04:29:27.248Z,74.20
2018-06-12T04:31:59.662Z,74.60
2018-06-12T04:34:31.638Z,74.70
2018-06-12T04:37:04.909Z,74.90
2018-06-12T04:39:38.537Z,74.50
2018-06-12T04:42:10.870Z,67.70
2018-06-12T04:44:43.086Z,66.10
2018-06-12T04:47:15.925Z,69.40
2018-06-12T04:49:48.056Z,70.40
2018-06-12T04:54:53.050Z,70.10
2018-06-12T04:57:24.899Z,68.50
2018-06-12T04:59:56.788Z,68.40
2018-06-12T05:02:28.845Z,68.90
2018-06-12T05:05:01.433Z,70.70
2018-06-12T05:07:33.363Z,71.40
2018-06-12T05:10:05.121Z,71.30
2018-06-12T05:12:37.112Z,71.00
2018-06-12T05:15:09.323Z,69.10
2018-06-12T05:20:16.663Z,67.10
2018-06-12T05:22:48.871Z,65.30
2018-06-12T05:27:52.547Z,68.90
2018-06-12T05:30:25.090Z,69.10
2018-06-12T05:32:57.792Z,68.60
2018-06-12T05:35:30.019Z,68.20
2018-06-12T05:38:02.465Z,67.40
2018-06-12T05:40:34.447Z,68.90
2018-06-12T05:43:06.687Z,68.70
2018-06-12T05:48:10.246Z,69.90
2018-06-12T05:53:15.564Z,71.20
2018-06-12T05:55:47.562Z,70.60
2018-06-12T05:58:19.969Z,69.90
2018-06-12T06:03:24.979Z,70.60
2018-06-12T06:05:57.372Z,68.50
2018-06-12T06:08:29.746Z,68.60
2018-06-12T06:11:02.419Z,67.70
2018-06-12T06:13:34.861Z,68.50
2018-06-12T06:18:38.565Z,67.40
2018-06-12T06:21:10.544Z,66.60
2018-06-12T06:23:42.582Z,67.10
2018-06-12T06:26:15.432Z,64.30
2018-06-12T06:28:47.362Z,63.90
2018-06-12T06:31:19.324Z,63.30
2018-06-12T06:33:51.243Z,61.30
2018-06-12T06:36:23.266Z,59.40
2018-06-12T06:38:55.286Z,62.10
2018-06-12T06:41:27.417Z,58.60
2018-06-12T06:43:59.686Z,60.40
2018-06-12T06:46:31.657Z,58.20
2018-06-12T06:49:03.992Z,58.00
2018-06-12T06:51:35.870Z,52.10
2018-06-12T06:54:07.798Z,51.30
2018-06-12T06:59:12.065Z,49.50
2018-06-12T07:01:44.129Z,53.40
2018-06-12T07:04:16.279Z,53.40
2018-06-12T07:06:48.289Z,49.70
2018-06-12T07:09:20.214Z,44.90
2018-06-12T07:11:52.153Z,44.00
2018-06-12T07:16:56.049Z,43.80
2018-06-12T07:24:32.542Z,44.90
2018-06-12T07:27:05.165Z,43.30
2018-06-12T07:29:37.745Z,46.60
2018-06-12T07:32:10.467Z,47.60
2018-06-12T07:34:43.581Z,40.60
2018-06-12T07:39:48.235Z,38.70
2018-06-12T07:44:52.753Z,42.50
2018-06-12T07:47:25.278Z,40.80
2018-06-12T07:49:57.973Z,40.30
2018-06-12T07:52:31.137Z,36.60
2018-06-12T07:55:04.157Z,44.00
2018-06-12T07:57:36.679Z,44.70
2018-06-12T08:02:41.892Z,39.40
2018-06-12T08:08:55.792Z,42.50
2018-06-12T08:11:28.372Z,34.30
2018-06-12T08:16:34.682Z,33.40
2018-06-12T08:19:07.778Z,34.00
2018-06-12T08:21:40.435Z,38.70
2018-06-12T08:24:13.101Z,35.00
2018-06-12T08:26:45.890Z,34.50
2018-06-12T08:34:22.139Z,42.80
2018-06-12T08:36:54.730Z,43.80
2018-06-12T08:39:27.360Z,40.30
2018-06-12T08:42:01.272Z,40.90
2018-06-12T08:47:05.612Z,40.10
2018-06-12T08:54:42.983Z,39.90
2018-06-12T08:57:15.521Z,43.10
2018-06-12T09:04:51.996Z,52.00
2018-06-12T09:07:24.583Z,45.90
2018-06-12T09:09:57.468Z,46.10
2018-06-12T09:12:30.009Z,50.10
2018-06-12T09:15:02.934Z,50.60
2018-06-12T09:20:07.414Z,51.70
2018-06-12T09:22:40.100Z,53.30
2018-06-12T09:25:18.564Z,50.20
2018-06-12T09:27:51.350Z,51.20
2018-06-12T09:32:55.792Z,48.60
2018-06-12T09:35:28.589Z,43.80
2018-06-12T09:40:34.333Z,43.40
2018-06-12T09:43:09.300Z,41.40
2018-06-12T09:45:42.065Z,38.70
2018-06-12T09:48:14.767Z,35.20
2018-06-12T09:50:47.784Z,33.10
2018-06-12T09:53:20.549Z,33.60
2018-06-12T09:55:53.202Z,31.50
2018-06-12T09:58:26.542Z,31.50
2018-06-12T10:01:04.809Z,30.40
2018-06-12T10:03:37.382Z,30.00
2018-06-12T10:06:10.067Z,34.00
2018-06-12T10:08:43.513Z,30.40
2018-06-12T10:11:16.142Z,35.60
2018-06-12T10:13:48.668Z,35.50
2018-06-12T10:16:21.642Z,38.10
2018-06-12T10:18:54.339Z,32.90
2018-06-12T10:26:33.600Z,33.50
2018-06-12T10:29:06.514Z,30.60
2018-06-12T10:31:40.440Z,30.80
2018-06-12T10:34:13.192Z,31.10
2018-06-12T10:36:45.709Z,31.30
2018-06-12T10:41:51.208Z,34.00
2018-06-12T10:44:23.965Z,33.30
2018-06-12T10:46:57.318Z,34.70
2018-06-12T10:49:29.985Z,43.40
2018-06-12T10:54:35.846Z,36.30
2018-06-12T10:57:09.461Z,33.80
2018-06-12T10:59:43.268Z,30.80
2018-06-12T11:02:15.924Z,34.30
2018-06-12T11:04:49.282Z,30.60
2018-06-12T11:09:56.001Z,34.60
2018-06-12T11:12:28.678Z,31.60
2018-06-12T11:15:01.777Z,31.30
2018-06-12T11:17:34.355Z,34.10
2018-06-12T11:20:07.063Z,37.70
2018-06-12T11:22:39.610Z,39.60
2018-06-12T11:27:50.968Z,42.70
2018-06-12T11:30:23.717Z,45.50
2018-06-12T11:32:57.134Z,41.80
2018-06-12T11:35:29.666Z,42.20
2018-06-12T11:43:06.351Z,42.40
2018-06-12T11:50:42.535Z,35.40
2018-06-12T11:53:15.472Z,35.80
2018-06-12T11:55:47.988Z,34.20
2018-06-12T11:58:20.553Z,45.80
2018-06-12T12:00:53.420Z,48.70
2018-06-12T12:03:25.816Z,44.60
2018-06-12T12:05:58.644Z,44.10
2018-06-12T12:11:03.887Z,44.80
2018-06-12T12:13:36.478Z,44.70
2018-06-12T12:16:09.073Z,48.90
2018-06-12T12:21:14.021Z,44.50
2018-06-12T12:26:19.708Z,43.00
2018-06-12T12:28:54.124Z,46.20
2018-06-12T12:31:27.288Z,43.60
2018-06-12T12:36:34.865Z,41.30
2018-06-12T12:39:10.712Z,43.40
2018-06-12T12:41:44.150Z,39.20
2018-06-12T12:46:50.259Z,38.50
2018-06-12T12:49:23.950Z,38.70
2018-06-12T12:51:57.278Z,41.20
2018-06-12T12:54:29.788Z,39.10
2018-06-12T12:57:03.126Z,40.40
2018-06-12T12:59:35.613Z,38.70
2018-06-12T13:02:08.001Z,40.00
2018-06-12T13:04:40.191Z,36.20
2018-06-12T13:07:12.411Z,34.10
2018-06-12T13:12:18.438Z,42.70
2018-06-12T13:14:51.583Z,41.40
2018-06-12T13:24:57.297Z,38.60
2018-06-12T13:30:00.652Z,38.40
2018-06-12T13:32:32.700Z,42.50
2018-06-12T13:35:04.555Z,44.60
2018-06-12T13:40:07.758Z,45.60
2018-06-12T13:45:10.873Z,43.10
2018-06-12T13:47:45.483Z,43.90
2018-06-12T13:52:52.464Z,45.20
2018-06-12T13:55:27.397Z,46.40
2018-06-12T14:00:31.101Z,46.40
2018-06-12T14:03:03.263Z,46.50
2018-06-12T14:05:35.081Z,50.00
2018-06-12T14:08:06.880Z,43.80
2018-06-12T14:10:39.818Z,45.40
2018-06-12T14:13:11.728Z,42.30
2018-06-12T14:18:16.900Z,43.50
2018-06-12T14:20:48.985Z,41.10
2018-06-12T14:23:20.796Z,39.70
2018-06-12T14:25:52.574Z,36.30
2018-06-12T14:28:24.608Z,38.10
2018-06-12T14:30:56.389Z,41.50
2018-06-12T14:33:28.230Z,39.10
2018-06-12T14:36:00.509Z,37.50
2018-06-12T14:38:32.492Z,39.30
2018-06-12T14:41:04.589Z,42.10
2018-06-12T14:43:36.484Z,40.80
2018-06-12T14:46:08.286Z,44.10
2018-06-12T14:48:40.144Z,47.50
2018-06-12T14:51:11.956Z,45.50
2018-06-12T14:53:43.842Z,49.50
2018-06-12T14:56:16.396Z,50.80
2018-06-12T14:58:48.284Z,50.20
2018-06-12T15:01:20.071Z,52.80
2018-06-12T15:03:51.879Z,51.50
2018-06-12T15:06:25.097Z,48.70
2018-06-12T15:08:57.112Z,50.70
2018-06-12T15:11:29.018Z,51.10
2018-06-12T15:14:00.993Z,51.50
2018-06-12T15:16:32.958Z,54.10
2018-06-12T15:21:36.838Z,50.90
2018-06-12T15:24:08.558Z,51.90
2018-06-12T15:26:40.272Z,53.50
2018-06-12T15:29:12.542Z,56.20
2018-06-12T15:34:15.672Z,56.50
2018-06-12T15:36:47.471Z,58.40
2018-06-12T15:39:19.219Z,59.40
2018-06-12T15:41:50.877Z,59.10
2018-06-12T15:44:22.627Z,58.60
2018-06-12T15:46:55.814Z,60.20
2018-06-12T15:51:59.546Z,57.00
2018-06-12T15:57:02.988Z,60.40
2018-06-12T15:59:34.923Z,60.70
2018-06-12T16:02:06.792Z,61.30
2018-06-12T16:04:38.613Z,61.30
2018-06-12T16:07:10.346Z,62.00
2018-06-12T16:12:13.523Z,62.70
2018-06-12T16:14:45.551Z,63.20
2018-06-12T16:17:17.506Z,62.70
2018-06-12T16:19:49.699Z,62.80
2018-06-12T16:22:21.503Z,62.90
2018-06-12T16:24:53.242Z,62.30
2018-06-12T16:27:25.080Z,62.90
2018-06-12T16:29:56.908Z,61.60
2018-06-12T16:32:29.523Z,62.30
2018-06-12T16:35:01.916Z,62.30
2018-06-12T16:37:33.890Z,63.00
2018-06-12T16:40:05.949Z,62.40
2018-06-12T16:42:41.072Z,62.60
2018-06-12T16:45:15.386Z,63.30
2018-06-12T16:47:48.027Z,63.60
2018-06-12T16:50:20.416Z,63.50
2018-06-12T16:52:52.152Z,63.90
2018-06-12T16:57:55.003Z,64.40
2018-06-12T17:00:26.941Z,64.70
2018-06-12T17:02:58.826Z,64.60
2018-06-12T17:05:30.807Z,66.30
2018-06-12T17:10:33.141Z,65.70
2018-06-12T17:15:36.210Z,66.70
2018-06-12T17:18:08.176Z,66.80
2018-06-12T17:20:40.249Z,66.50
2018-06-12T17:23:12.106Z,66.30
2018-06-12T17:25:44.047Z,66.60
2018-06-12T17:28:17.121Z,66.80
2018-06-12T17:30:49.495Z,66.60
2018-06-12T17:33:21.361Z,66.90
2018-06-12T17:35:53.262Z,67.10
2018-06-12T17:45:59.544Z,68.10
2018-06-12T17:48:31.477Z,68.10
2018-06-12T17:51:03.984Z,68.00
2018-06-12T17:53:36.185Z,68.10
2018-06-12T17:56:09.161Z,68.50
2018-06-12T17:58:41.196Z,68.10
2018-06-12T18:01:13.931Z,68.30
2018-06-12T18:03:46.153Z,68.60
2018-06-12T18:08:52.651Z,69.50
2018-06-12T18:11:25.358Z,69.70
2018-06-12T18:16:28.844Z,70.30
2018-06-12T18:19:01.253Z,70.40
2018-06-12T18:21:33.133Z,70.80
2018-06-12T18:29:07.684Z,71.00
2018-06-12T18:34:10.841Z,71.30
2018-06-12T18:39:14.124Z,71.30
2018-06-12T18:41:46.042Z,71.70
2018-06-12T18:44:18.341Z,71.80
2018-06-12T18:49:21.699Z,72.00
2018-06-12T18:51:53.672Z,71.70
2018-06-12T18:54:25.586Z,71.70
2018-06-12T18:59:29.478Z,71.90
2018-06-12T19:04:32.860Z,71.60
2018-06-12T19:07:04.948Z,71.70
2018-06-12T19:09:36.637Z,71.90
2018-06-12T19:12:09.436Z,71.80
2018-06-12T19:14:41.343Z,71.90
2018-06-12T19:17:13.337Z,72.00
2018-06-12T19:19:45.062Z,72.20
2018-06-12T19:22:17.151Z,72.30
2018-06-12T19:24:48.927Z,72.20
2018-06-12T19:27:20.785Z,71.70
2018-06-12T19:29:52.922Z,71.40
2018-06-12T19:32:27.173Z,70.90
2018-06-12T19:34:59.518Z,70.90
2018-06-12T19:37:31.702Z,70.90
2018-06-12T19:40:04.267Z,71.30
2018-06-12T19:42:36.064Z,70.80
2018-06-12T19:45:08.259Z,70.90
2018-06-12T19:47:42.502Z,70.80
2018-06-12T19:50:15.252Z,70.70
2018-06-12T19:52:51.021Z,70.70
2018-06-12T19:55:28.442Z,70.80
2018-06-12T19:58:00.796Z,71.10
2018-06-12T20:00:32.777Z,71.00
2018-06-12T20:03:05.123Z,71.60
2018-06-12T20:05:37.084Z,71.70
2018-06-12T20:08:09.150Z,72.00
2018-06-12T20:10:41.137Z,72.20
2018-06-12T20:13:13.527Z,72.20
2018-06-12T20:15:45.725Z,72.30
2018-06-12T20:20:49.093Z,72.20
2018-06-12T20:23:22.635Z,72.30
2018-06-12T20:25:54.668Z,72.60
2018-06-12T20:28:26.770Z,72.40
2018-06-12T20:33:30.723Z,72.80
2018-06-12T20:36:03.400Z,73.30
2018-06-12T20:38:35.581Z,73.60
2018-06-12T20:41:07.736Z,74.50
2018-06-12T20:43:39.636Z,74.20
2018-06-12T20:46:11.613Z,74.60
2018-06-12T20:48:43.428Z,74.40
2018-06-12T20:51:15.511Z,74.00
2018-06-12T20:53:47.454Z,73.90
2018-06-12T20:56:19.563Z,73.90
2018-06-12T20:58:51.564Z,73.90
2018-06-12T21:01:23.497Z,73.90
2018-06-12T21:03:56.128Z,73.80
2018-06-12T21:06:28.144Z,74.00
2018-06-12T21:09:00.573Z,73.80
2018-06-12T21:11:32.487Z,73.50
2018-06-12T21:14:04.826Z,73.30
2018-06-12T21:16:37.006Z,73.10
2018-06-12T21:19:10.098Z,73.00
2018-06-12T21:21:42.110Z,73.10
2018-06-12T21:24:13.998Z,73.10
2018-06-12T21:26:46.167Z,73.30
2018-06-12T21:29:18.166Z,73.80
2018-06-12T21:31:50.233Z,73.90
2018-06-12T21:34:22.738Z,73.70
2018-06-12T21:36:55.216Z,72.30
2018-06-12T21:39:27.234Z,72.20
2018-06-12T21:41:59.646Z,71.70
2018-06-12T21:44:31.653Z,71.60
2018-06-12T21:47:04.216Z,71.40
2018-06-12T21:49:36.176Z,71.50
2018-06-12T21:52:08.346Z,71.60
2018-06-12T21:54:41.636Z,71.50
2018-06-12T21:57:13.738Z,71.00
2018-06-12T21:59:45.610Z,71.30
2018-06-12T22:02:17.585Z,70.80
2018-06-12T22:04:49.713Z,70.80
2018-06-12T22:07:21.524Z,70.60
2018-06-12T22:09:53.579Z,70.40
2018-06-12T22:12:25.381Z,70.30
2018-06-12T22:15:04.960Z,70.60
2018-06-12T22:17:52.250Z,70.40
2018-06-12T22:20:27.289Z,70.30
2018-06-12T22:22:59.566Z,70.00
2018-06-12T22:28:03.283Z,70.60
2018-06-12T22:30:35.280Z,70.70
2018-06-12T22:33:08.080Z,70.90
2018-06-12T22:35:40.688Z,71.10
2018-06-12T22:38:13.168Z,71.50
2018-06-12T22:40:46.399Z,71.40
2018-06-12T22:43:18.437Z,71.40
2018-06-12T22:45:50.953Z,70.70
2018-06-12T22:48:22.852Z,70.80
2018-06-12T22:50:54.824Z,71.40
2018-06-12T22:55:57.836Z,77.80
2018-06-12T23:01:02.169Z,77.70
2018-06-12T23:03:34.241Z,78.90
2018-06-12T23:06:06.988Z,79.50
2018-06-12T23:08:39.000Z,80.50
2018-06-12T23:11:11.172Z,80.90
2018-06-12T23:13:43.199Z,80.40
2018-06-12T23:21:49.065Z,81.20
2018-06-12T23:24:21.087Z,81.00
2018-06-12T23:29:24.456Z,80.80
2018-06-12T23:31:56.396Z,80.30
2018-06-12T23:34:28.690Z,80.40
2018-06-12T23:37:01.118Z,80.50
2018-06-12T23:39:33.116Z,80.50
2018-06-12T23:42:05.395Z,80.50
2018-06-12T23:49:39.845Z,80.10
2018-06-12T23:52:11.905Z,80.50
2018-06-12T23:54:43.832Z,80.60
2018-06-12T23:59:47.456Z,79.50
